sensor_id;sensor_type;location;lat;lon;timestamp;P1;durP1;ratioP1;P2;durP2;ratioP2
33246;SDS011;19606;50.108;19.804;2022-12-11T00:01:11;67.05;;;23.63;;
33246;SDS011;19606;50.108;19.804;2022-12-11T00:03:38;69.38;;;27.05;;
33246;SDS011;19606;50.108;19.804;2022-12-11T00:06:08;63.17;;;25.73;;
33246;SDS011;19606;50.108;19.804;2022-12-11T00:08:36;60.45;;;22.85;;
33246;SDS011;19606;50.108;19.804;2022-12-11T00:11:02;62.67;;;23.67;;
33246;SDS011;19606;50.108;19.804;2022-12-11T00:13:28;59.33;;;23.73;;
33246;SDS011;19606;50.108;19.804;2022-12-11T00:15:54;68.10;;;24.65;;
33246;SDS011;19606;50.108;19.804;2022-12-11T00:18:22;64.22;;;22.75;;
33246;SDS011;19606;50.108;19.804;2022-12-11T00:20:48;68.53;;;23.50;;
33246;SDS011;19606;50.108;19.804;2022-12-11T00:23:13;61.78;;;23.98;;
33246;SDS011;19606;50.108;19.804;2022-12-11T00:25:43;62.70;;;23.05;;
33246;SDS011;19606;50.108;19.804;2022-12-11T00:30:40;50.30;;;19.88;;
33246;SDS011;19606;50.108;19.804;2022-12-11T00:33:07;51.25;;;19.98;;
33246;SDS011;19606;50.108;19.804;2022-12-11T00:35:40;52.60;;;22.42;;
33246;SDS011;19606;50.108;19.804;2022-12-11T00:38:18;61.75;;;21.95;;
33246;SDS011;19606;50.108;19.804;2022-12-11T00:40:44;55.45;;;21.48;;
33246;SDS011;19606;50.108;19.804;2022-12-11T00:43:10;51.42;;;19.67;;
33246;SDS011;19606;50.108;19.804;2022-12-11T00:45:37;51.10;;;20.27;;
33246;SDS011;19606;50.108;19.804;2022-12-11T00:48:04;44.45;;;19.92;;
33246;SDS011;19606;50.108;19.804;2022-12-11T00:50:33;49.28;;;17.90;;
33246;SDS011;19606;50.108;19.804;2022-12-11T00:53:00;47.97;;;18.58;;
33246;SDS011;19606;50.108;19.804;2022-12-11T00:55:26;51.60;;;19.98;;
33246;SDS011;19606;50.108;19.804;2022-12-11T00:57:55;51.50;;;19.08;;
33246;SDS011;19606;50.108;19.804;2022-12-11T01:00:22;47.03;;;18.52;;
33246;SDS011;19606;50.108;19.804;2022-12-11T01:02:48;41.20;;;16.77;;
33246;SDS011;19606;50.108;19.804;2022-12-11T01:05:14;39.90;;;14.75;;
33246;SDS011;19606;50.108;19.804;2022-12-11T01:07:40;34.20;;;15.25;;
33246;SDS011;19606;50.108;19.804;2022-12-11T01:10:05;37.47;;;14.65;;
33246;SDS011;19606;50.108;19.804;2022-12-11T01:12:50;32.72;;;14.43;;
33246;SDS011;19606;50.108;19.804;2022-12-11T01:15:31;34.65;;;15.63;;
33246;SDS011;19606;50.108;19.804;2022-12-11T01:17:58;34.78;;;15.20;;
33246;SDS011;19606;50.108;19.804;2022-12-11T01:20:25;32.78;;;15.25;;
33246;SDS011;19606;50.108;19.804;2022-12-11T01:22:54;44.10;;;16.75;;
33246;SDS011;19606;50.108;19.804;2022-12-11T01:25:21;40.65;;;16.50;;
33246;SDS011;19606;50.108;19.804;2022-12-11T01:27:51;40.28;;;16.23;;
33246;SDS011;19606;50.108;19.804;2022-12-11T01:30:18;40.22;;;14.95;;
33246;SDS011;19606;50.108;19.804;2022-12-11T01:32:45;32.17;;;14.45;;
33246;SDS011;19606;50.108;19.804;2022-12-11T01:35:12;28.52;;;13.50;;
33246;SDS011;19606;50.108;19.804;2022-12-11T01:37:37;33.50;;;14.50;;
33246;SDS011;19606;50.108;19.804;2022-12-11T01:40:04;27.77;;;13.60;;
33246;SDS011;19606;50.108;19.804;2022-12-11T01:42:31;32.45;;;13.93;;
33246;SDS011;19606;50.108;19.804;2022-12-11T01:45:40;31.30;;;14.40;;
33246;SDS011;19606;50.108;19.804;2022-12-11T01:47:47;29.02;;;12.10;;
33246;SDS011;19606;50.108;19.804;2022-12-11T01:50:13;28.70;;;12.57;;
33246;SDS011;19606;50.108;19.804;2022-12-11T01:52:39;30.90;;;13.65;;
33246;SDS011;19606;50.108;19.804;2022-12-11T01:55:07;31.05;;;14.30;;
33246;SDS011;19606;50.108;19.804;2022-12-11T01:57:34;29.95;;;12.32;;
33246;SDS011;19606;50.108;19.804;2022-12-11T02:00:02;29.40;;;12.75;;
33246;SDS011;19606;50.108;19.804;2022-12-11T02:02:29;33.03;;;13.82;;
33246;SDS011;19606;50.108;19.804;2022-12-11T02:04:55;37.80;;;16.38;;
33246;SDS011;19606;50.108;19.804;2022-12-11T02:07:21;38.78;;;17.85;;
33246;SDS011;19606;50.108;19.804;2022-12-11T02:09:47;56.05;;;28.27;;
33246;SDS011;19606;50.108;19.804;2022-12-11T02:20:40;40.40;;;17.15;;
33246;SDS011;19606;50.108;19.804;2022-12-11T02:23:34;29.92;;;13.05;;
33246;SDS011;19606;50.108;19.804;2022-12-11T02:26:11;25.98;;;12.20;;
33246;SDS011;19606;50.108;19.804;2022-12-11T02:28:59;43.15;;;18.95;;
33246;SDS011;19606;50.108;19.804;2022-12-11T02:31:35;62.95;;;24.10;;
33246;SDS011;19606;50.108;19.804;2022-12-11T02:34:12;57.47;;;23.23;;
33246;SDS011;19606;50.108;19.804;2022-12-11T02:36:45;42.95;;;17.95;;
33246;SDS011;19606;50.108;19.804;2022-12-11T02:39:15;65.97;;;23.75;;
33246;SDS011;19606;50.108;19.804;2022-12-11T02:41:43;56.05;;;22.65;;
33246;SDS011;19606;50.108;19.804;2022-12-11T02:44:14;70.45;;;26.50;;
33246;SDS011;19606;50.108;19.804;2022-12-11T02:46:42;101.07;;;35.35;;
33246;SDS011;19606;50.108;19.804;2022-12-11T02:49:09;83.78;;;29.73;;
33246;SDS011;19606;50.108;19.804;2022-12-11T02:51:40;79.10;;;28.15;;
33246;SDS011;19606;50.108;19.804;2022-12-11T02:54:09;58.50;;;20.60;;
33246;SDS011;19606;50.108;19.804;2022-12-11T02:56:39;36.17;;;15.48;;
33246;SDS011;19606;50.108;19.804;2022-12-11T02:59:14;46.80;;;20.63;;
33246;SDS011;19606;50.108;19.804;2022-12-11T03:01:44;44.67;;;18.42;;
33246;SDS011;19606;50.108;19.804;2022-12-11T03:04:10;46.05;;;17.95;;
33246;SDS011;19606;50.108;19.804;2022-12-11T03:06:37;32.80;;;13.65;;
33246;SDS011;19606;50.108;19.804;2022-12-11T03:09:06;30.42;;;13.35;;
33246;SDS011;19606;50.108;19.804;2022-12-11T03:11:32;32.20;;;13.77;;
33246;SDS011;19606;50.108;19.804;2022-12-11T03:13:58;30.38;;;13.60;;
33246;SDS011;19606;50.108;19.804;2022-12-11T03:19:15;31.33;;;14.40;;
33246;SDS011;19606;50.108;19.804;2022-12-11T03:21:52;29.95;;;12.45;;
33246;SDS011;19606;50.108;19.804;2022-12-11T03:24:39;30.13;;;13.60;;
33246;SDS011;19606;50.108;19.804;2022-12-11T03:29:55;33.88;;;14.27;;
33246;SDS011;19606;50.108;19.804;2022-12-11T03:32:26;43.03;;;16.95;;
33246;SDS011;19606;50.108;19.804;2022-12-11T03:35:13;36.58;;;14.93;;
33246;SDS011;19606;50.108;19.804;2022-12-11T03:37:46;23.15;;;10.73;;
33246;SDS011;19606;50.108;19.804;2022-12-11T03:40:15;27.88;;;10.80;;
33246;SDS011;19606;50.108;19.804;2022-12-11T03:42:42;34.22;;;14.75;;
33246;SDS011;19606;50.108;19.804;2022-12-11T03:45:11;34.28;;;13.05;;
33246;SDS011;19606;50.108;19.804;2022-12-11T03:47:38;24.08;;;10.82;;
33246;SDS011;19606;50.108;19.804;2022-12-11T03:50:07;22.50;;;10.95;;
33246;SDS011;19606;50.108;19.804;2022-12-11T03:52:35;23.85;;;11.48;;
33246;SDS011;19606;50.108;19.804;2022-12-11T03:55:03;23.45;;;10.18;;
33246;SDS011;19606;50.108;19.804;2022-12-11T03:57:31;27.83;;;11.68;;
33246;SDS011;19606;50.108;19.804;2022-12-11T04:00:00;28.95;;;11.30;;
33246;SDS011;19606;50.108;19.804;2022-12-11T04:02:28;21.33;;;10.15;;
33246;SDS011;19606;50.108;19.804;2022-12-11T04:04:55;21.63;;;9.95;;
33246;SDS011;19606;50.108;19.804;2022-12-11T04:07:20;22.13;;;9.90;;
33246;SDS011;19606;50.108;19.804;2022-12-11T04:09:46;21.65;;;9.52;;
33246;SDS011;19606;50.108;19.804;2022-12-11T04:12:12;21.35;;;10.38;;
33246;SDS011;19606;50.108;19.804;2022-12-11T04:14:38;23.35;;;10.55;;
33246;SDS011;19606;50.108;19.804;2022-12-11T04:17:22;22.98;;;10.27;;
33246;SDS011;19606;50.108;19.804;2022-12-11T04:20:06;17.73;;;9.07;;
33246;SDS011;19606;50.108;19.804;2022-12-11T04:22:50;23.58;;;10.38;;
33246;SDS011;19606;50.108;19.804;2022-12-11T04:25:34;25.45;;;10.68;;
33246;SDS011;19606;50.108;19.804;2022-12-11T04:28:00;29.85;;;12.90;;
33246;SDS011;19606;50.108;19.804;2022-12-11T04:30:26;27.27;;;11.90;;
33246;SDS011;19606;50.108;19.804;2022-12-11T04:32:52;29.05;;;12.20;;
33246;SDS011;19606;50.108;19.804;2022-12-11T04:35:18;26.13;;;11.85;;
33246;SDS011;19606;50.108;19.804;2022-12-11T04:37:45;21.25;;;9.40;;
33246;SDS011;19606;50.108;19.804;2022-12-11T04:40:12;30.88;;;12.63;;
33246;SDS011;19606;50.108;19.804;2022-12-11T04:42:39;27.05;;;11.23;;
33246;SDS011;19606;50.108;19.804;2022-12-11T04:45:06;26.73;;;12.63;;
33246;SDS011;19606;50.108;19.804;2022-12-11T04:47:36;30.30;;;13.98;;
33246;SDS011;19606;50.108;19.804;2022-12-11T04:50:03;27.77;;;12.77;;
33246;SDS011;19606;50.108;19.804;2022-12-11T04:52:30;31.75;;;14.43;;
33246;SDS011;19606;50.108;19.804;2022-12-11T04:54:56;31.40;;;14.30;;
33246;SDS011;19606;50.108;19.804;2022-12-11T04:57:22;36.28;;;14.07;;
33246;SDS011;19606;50.108;19.804;2022-12-11T04:59:47;24.30;;;11.35;;
33246;SDS011;19606;50.108;19.804;2022-12-11T05:02:14;25.80;;;12.07;;
33246;SDS011;19606;50.108;19.804;2022-12-11T05:04:40;26.48;;;12.07;;
33246;SDS011;19606;50.108;19.804;2022-12-11T05:07:06;25.75;;;12.25;;
33246;SDS011;19606;50.108;19.804;2022-12-11T05:09:33;29.77;;;12.75;;
33246;SDS011;19606;50.108;19.804;2022-12-11T05:12:00;31.27;;;13.45;;
33246;SDS011;19606;50.108;19.804;2022-12-11T05:14:26;29.55;;;13.00;;
33246;SDS011;19606;50.108;19.804;2022-12-11T05:16:54;30.80;;;12.95;;
33246;SDS011;19606;50.108;19.804;2022-12-11T05:19:19;34.35;;;14.50;;
33246;SDS011;19606;50.108;19.804;2022-12-11T05:21:45;28.75;;;12.27;;
33246;SDS011;19606;50.108;19.804;2022-12-11T05:24:11;29.52;;;12.00;;
33246;SDS011;19606;50.108;19.804;2022-12-11T05:26:36;26.90;;;11.85;;
33246;SDS011;19606;50.108;19.804;2022-12-11T05:29:02;32.05;;;12.63;;
33246;SDS011;19606;50.108;19.804;2022-12-11T05:31:28;27.83;;;12.48;;
33246;SDS011;19606;50.108;19.804;2022-12-11T05:33:54;37.08;;;14.90;;
33246;SDS011;19606;50.108;19.804;2022-12-11T05:36:27;28.60;;;13.25;;
33246;SDS011;19606;50.108;19.804;2022-12-11T05:38:54;33.70;;;14.13;;
33246;SDS011;19606;50.108;19.804;2022-12-11T05:41:21;31.98;;;14.00;;
33246;SDS011;19606;50.108;19.804;2022-12-11T05:43:48;27.20;;;10.30;;
33246;SDS011;19606;50.108;19.804;2022-12-11T05:46:14;28.85;;;12.45;;
33246;SDS011;19606;50.108;19.804;2022-12-11T05:48:42;27.60;;;12.30;;
33246;SDS011;19606;50.108;19.804;2022-12-11T05:51:10;36.28;;;16.27;;
33246;SDS011;19606;50.108;19.804;2022-12-11T05:53:36;28.90;;;12.95;;
33246;SDS011;19606;50.108;19.804;2022-12-11T05:56:03;32.22;;;13.00;;
33246;SDS011;19606;50.108;19.804;2022-12-11T05:58:30;30.73;;;13.18;;
33246;SDS011;19606;50.108;19.804;2022-12-11T06:00:56;36.70;;;14.43;;
33246;SDS011;19606;50.108;19.804;2022-12-11T06:03:22;37.17;;;14.65;;
33246;SDS011;19606;50.108;19.804;2022-12-11T06:05:48;35.53;;;15.13;;
33246;SDS011;19606;50.108;19.804;2022-12-11T06:08:13;32.45;;;13.95;;
33246;SDS011;19606;50.108;19.804;2022-12-11T06:10:45;36.85;;;15.15;;
33246;SDS011;19606;50.108;19.804;2022-12-11T06:13:12;30.30;;;12.02;;
33246;SDS011;19606;50.108;19.804;2022-12-11T06:15:38;31.50;;;14.77;;
33246;SDS011;19606;50.108;19.804;2022-12-11T06:18:04;39.17;;;15.73;;
33246;SDS011;19606;50.108;19.804;2022-12-11T06:20:30;32.60;;;12.55;;
33246;SDS011;19606;50.108;19.804;2022-12-11T06:22:57;32.88;;;14.45;;
33246;SDS011;19606;50.108;19.804;2022-12-11T06:25:23;29.63;;;12.20;;
33246;SDS011;19606;50.108;19.804;2022-12-11T06:27:49;34.40;;;14.32;;
33246;SDS011;19606;50.108;19.804;2022-12-11T06:30:15;24.67;;;10.63;;
33246;SDS011;19606;50.108;19.804;2022-12-11T06:32:40;37.40;;;13.98;;
33246;SDS011;19606;50.108;19.804;2022-12-11T06:35:07;34.63;;;14.05;;
33246;SDS011;19606;50.108;19.804;2022-12-11T06:37:33;38.28;;;14.05;;
33246;SDS011;19606;50.108;19.804;2022-12-11T06:40:00;34.65;;;14.30;;
33246;SDS011;19606;50.108;19.804;2022-12-11T06:42:28;33.50;;;13.38;;
33246;SDS011;19606;50.108;19.804;2022-12-11T06:44:54;28.00;;;13.18;;
33246;SDS011;19606;50.108;19.804;2022-12-11T06:47:21;25.95;;;13.32;;
33246;SDS011;19606;50.108;19.804;2022-12-11T06:49:47;29.13;;;12.48;;
33246;SDS011;19606;50.108;19.804;2022-12-11T06:52:13;34.75;;;14.20;;
33246;SDS011;19606;50.108;19.804;2022-12-11T06:54:38;30.92;;;14.13;;
33246;SDS011;19606;50.108;19.804;2022-12-11T06:57:04;35.38;;;14.80;;
33246;SDS011;19606;50.108;19.804;2022-12-11T06:59:29;30.35;;;13.45;;
33246;SDS011;19606;50.108;19.804;2022-12-11T07:01:55;33.53;;;13.98;;
33246;SDS011;19606;50.108;19.804;2022-12-11T07:04:21;32.25;;;15.00;;
33246;SDS011;19606;50.108;19.804;2022-12-11T07:06:48;31.02;;;13.18;;
33246;SDS011;19606;50.108;19.804;2022-12-11T07:09:14;32.22;;;15.48;;
33246;SDS011;19606;50.108;19.804;2022-12-11T07:11:40;39.08;;;15.40;;
33246;SDS011;19606;50.108;19.804;2022-12-11T07:14:05;31.90;;;14.88;;
33246;SDS011;19606;50.108;19.804;2022-12-11T07:16:31;30.98;;;14.10;;
33246;SDS011;19606;50.108;19.804;2022-12-11T07:18:57;32.30;;;13.68;;
33246;SDS011;19606;50.108;19.804;2022-12-11T07:21:22;29.83;;;12.73;;
33246;SDS011;19606;50.108;19.804;2022-12-11T07:23:48;33.75;;;13.50;;
33246;SDS011;19606;50.108;19.804;2022-12-11T07:26:15;31.60;;;13.00;;
33246;SDS011;19606;50.108;19.804;2022-12-11T07:28:43;26.45;;;12.95;;
33246;SDS011;19606;50.108;19.804;2022-12-11T07:31:11;19.23;;;8.48;;
33246;SDS011;19606;50.108;19.804;2022-12-11T07:33:41;30.20;;;14.10;;
33246;SDS011;19606;50.108;19.804;2022-12-11T07:36:08;24.02;;;10.43;;
33246;SDS011;19606;50.108;19.804;2022-12-11T07:38:35;28.77;;;12.15;;
33246;SDS011;19606;50.108;19.804;2022-12-11T07:41:01;32.88;;;13.13;;
33246;SDS011;19606;50.108;19.804;2022-12-11T07:43:29;30.00;;;12.43;;
33246;SDS011;19606;50.108;19.804;2022-12-11T07:46:07;32.58;;;13.02;;
33246;SDS011;19606;50.108;19.804;2022-12-11T07:48:41;29.77;;;12.57;;
33246;SDS011;19606;50.108;19.804;2022-12-11T07:51:12;36.03;;;14.07;;
33246;SDS011;19606;50.108;19.804;2022-12-11T07:53:40;30.60;;;12.95;;
33246;SDS011;19606;50.108;19.804;2022-12-11T07:56:10;29.05;;;12.70;;
33246;SDS011;19606;50.108;19.804;2022-12-11T07:58:36;28.48;;;12.57;;
33246;SDS011;19606;50.108;19.804;2022-12-11T08:01:03;34.65;;;14.50;;
33246;SDS011;19606;50.108;19.804;2022-12-11T08:03:37;30.05;;;12.88;;
33246;SDS011;19606;50.108;19.804;2022-12-11T08:06:03;32.20;;;13.25;;
33246;SDS011;19606;50.108;19.804;2022-12-11T08:08:29;30.40;;;11.48;;
33246;SDS011;19606;50.108;19.804;2022-12-11T08:10:55;30.50;;;11.30;;
33246;SDS011;19606;50.108;19.804;2022-12-11T08:13:24;24.60;;;12.60;;
33246;SDS011;19606;50.108;19.804;2022-12-11T08:15:49;29.00;;;13.15;;
33246;SDS011;19606;50.108;19.804;2022-12-11T08:18:15;29.38;;;12.68;;
33246;SDS011;19606;50.108;19.804;2022-12-11T08:20:41;33.08;;;13.80;;
33246;SDS011;19606;50.108;19.804;2022-12-11T08:23:06;26.52;;;12.25;;
33246;SDS011;19606;50.108;19.804;2022-12-11T08:25:32;31.00;;;14.43;;
33246;SDS011;19606;50.108;19.804;2022-12-11T08:27:57;30.60;;;13.73;;
33246;SDS011;19606;50.108;19.804;2022-12-11T08:30:23;32.75;;;15.05;;
33246;SDS011;19606;50.108;19.804;2022-12-11T08:32:49;35.30;;;14.45;;
33246;SDS011;19606;50.108;19.804;2022-12-11T08:35:14;35.30;;;15.43;;
33246;SDS011;19606;50.108;19.804;2022-12-11T08:37:40;32.30;;;14.18;;
33246;SDS011;19606;50.108;19.804;2022-12-11T08:40:06;31.17;;;13.45;;
33246;SDS011;19606;50.108;19.804;2022-12-11T08:42:33;30.73;;;14.10;;
33246;SDS011;19606;50.108;19.804;2022-12-11T08:44:59;24.40;;;11.93;;
33246;SDS011;19606;50.108;19.804;2022-12-11T08:47:25;32.70;;;14.98;;
33246;SDS011;19606;50.108;19.804;2022-12-11T08:49:51;27.95;;;12.90;;
33246;SDS011;19606;50.108;19.804;2022-12-11T08:52:16;30.77;;;14.07;;
33246;SDS011;19606;50.108;19.804;2022-12-11T08:54:42;32.53;;;14.80;;
33246;SDS011;19606;50.108;19.804;2022-12-11T08:57:08;31.92;;;13.60;;
33246;SDS011;19606;50.108;19.804;2022-12-11T08:59:33;32.28;;;14.23;;
33246;SDS011;19606;50.108;19.804;2022-12-11T09:01:59;31.30;;;14.05;;
33246;SDS011;19606;50.108;19.804;2022-12-11T09:04:25;28.77;;;12.52;;
33246;SDS011;19606;50.108;19.804;2022-12-11T09:06:50;36.30;;;15.10;;
33246;SDS011;19606;50.108;19.804;2022-12-11T09:09:16;28.25;;;12.63;;
33246;SDS011;19606;50.108;19.804;2022-12-11T09:11:42;33.35;;;15.55;;
33246;SDS011;19606;50.108;19.804;2022-12-11T09:14:08;31.45;;;14.32;;
33246;SDS011;19606;50.108;19.804;2022-12-11T09:16:34;31.85;;;14.52;;
33246;SDS011;19606;50.108;19.804;2022-12-11T09:19:05;29.13;;;13.45;;
33246;SDS011;19606;50.108;19.804;2022-12-11T09:21:37;29.20;;;13.35;;
33246;SDS011;19606;50.108;19.804;2022-12-11T09:24:03;32.70;;;14.52;;
33246;SDS011;19606;50.108;19.804;2022-12-11T09:26:29;31.42;;;14.15;;
33246;SDS011;19606;50.108;19.804;2022-12-11T09:28:55;31.48;;;14.50;;
33246;SDS011;19606;50.108;19.804;2022-12-11T09:31:23;29.58;;;12.50;;
33246;SDS011;19606;50.108;19.804;2022-12-11T09:33:50;29.30;;;13.27;;
33246;SDS011;19606;50.108;19.804;2022-12-11T09:36:17;31.10;;;13.60;;
33246;SDS011;19606;50.108;19.804;2022-12-11T09:38:43;27.88;;;13.73;;
33246;SDS011;19606;50.108;19.804;2022-12-11T09:43:46;34.25;;;15.25;;
33246;SDS011;19606;50.108;19.804;2022-12-11T09:46:22;30.70;;;13.38;;
33246;SDS011;19606;50.108;19.804;2022-12-11T09:48:49;32.08;;;15.68;;
33246;SDS011;19606;50.108;19.804;2022-12-11T09:51:25;32.53;;;14.23;;
33246;SDS011;19606;50.108;19.804;2022-12-11T09:54:00;27.88;;;12.10;;
33246;SDS011;19606;50.108;19.804;2022-12-11T10:07:46;30.27;;;13.70;;
33246;SDS011;19606;50.108;19.804;2022-12-11T10:16:30;24.25;;;12.02;;
33246;SDS011;19606;50.108;19.804;2022-12-11T10:18:57;26.52;;;10.93;;
33246;SDS011;19606;50.108;19.804;2022-12-11T10:21:23;27.35;;;12.55;;
33246;SDS011;19606;50.108;19.804;2022-12-11T10:24:33;23.63;;;10.23;;
33246;SDS011;19606;50.108;19.804;2022-12-11T10:27:08;29.42;;;13.43;;
33246;SDS011;19606;50.108;19.804;2022-12-11T10:29:44;30.80;;;13.55;;
33246;SDS011;19606;50.108;19.804;2022-12-11T10:32:21;28.45;;;14.90;;
33246;SDS011;19606;50.108;19.804;2022-12-11T10:34:54;25.90;;;14.02;;
33246;SDS011;19606;50.108;19.804;2022-12-11T10:37:24;29.35;;;13.32;;
33246;SDS011;19606;50.108;19.804;2022-12-11T10:39:49;24.42;;;11.32;;
33246;SDS011;19606;50.108;19.804;2022-12-11T10:42:17;28.33;;;14.30;;
33246;SDS011;19606;50.108;19.804;2022-12-11T10:45:01;25.67;;;11.68;;
33246;SDS011;19606;50.108;19.804;2022-12-11T10:47:28;30.23;;;13.95;;
33246;SDS011;19606;50.108;19.804;2022-12-11T10:49:55;24.92;;;13.05;;
33246;SDS011;19606;50.108;19.804;2022-12-11T10:52:34;32.60;;;15.27;;
33246;SDS011;19606;50.108;19.804;2022-12-11T10:57:45;31.55;;;15.65;;
33246;SDS011;19606;50.108;19.804;2022-12-11T11:00:35;31.45;;;16.25;;
33246;SDS011;19606;50.108;19.804;2022-12-11T11:03:22;32.25;;;16.70;;
33246;SDS011;19606;50.108;19.804;2022-12-11T11:05:49;32.75;;;15.65;;
33246;SDS011;19606;50.108;19.804;2022-12-11T11:08:51;33.95;;;18.00;;
33246;SDS011;19606;50.108;19.804;2022-12-11T11:13:49;31.20;;;16.33;;
33246;SDS011;19606;50.108;19.804;2022-12-11T11:16:16;32.30;;;15.32;;
33246;SDS011;19606;50.108;19.804;2022-12-11T11:18:53;32.63;;;16.60;;
33246;SDS011;19606;50.108;19.804;2022-12-11T11:21:23;36.70;;;17.58;;
33246;SDS011;19606;50.108;19.804;2022-12-11T11:23:51;35.20;;;16.35;;
33246;SDS011;19606;50.108;19.804;2022-12-11T11:26:18;37.65;;;16.77;;
33246;SDS011;19606;50.108;19.804;2022-12-11T11:31:17;37.65;;;17.38;;
33246;SDS011;19606;50.108;19.804;2022-12-11T11:33:50;29.08;;;14.45;;
33246;SDS011;19606;50.108;19.804;2022-12-11T11:36:33;34.88;;;16.40;;
33246;SDS011;19606;50.108;19.804;2022-12-11T11:42:01;31.25;;;15.43;;
33246;SDS011;19606;50.108;19.804;2022-12-11T11:44:49;31.50;;;16.03;;
33246;SDS011;19606;50.108;19.804;2022-12-11T11:47:23;28.75;;;12.95;;
33246;SDS011;19606;50.108;19.804;2022-12-11T11:52:41;37.97;;;18.50;;
33246;SDS011;19606;50.108;19.804;2022-12-11T11:58:16;35.35;;;15.43;;
33246;SDS011;19606;50.108;19.804;2022-12-11T12:00:47;29.38;;;15.00;;
33246;SDS011;19606;50.108;19.804;2022-12-11T12:03:17;27.35;;;14.80;;
33246;SDS011;19606;50.108;19.804;2022-12-11T12:11:23;35.00;;;16.52;;
33246;SDS011;19606;50.108;19.804;2022-12-11T12:14:05;32.72;;;16.08;;
33246;SDS011;19606;50.108;19.804;2022-12-11T12:21:56;35.30;;;15.60;;
33246;SDS011;19606;50.108;19.804;2022-12-11T12:24:55;28.73;;;14.05;;
33246;SDS011;19606;50.108;19.804;2022-12-11T12:27:44;29.00;;;12.77;;
33246;SDS011;19606;50.108;19.804;2022-12-11T12:30:35;27.05;;;13.27;;
33246;SDS011;19606;50.108;19.804;2022-12-11T12:35:55;26.90;;;12.68;;
33246;SDS011;19606;50.108;19.804;2022-12-11T12:44:15;33.75;;;15.52;;
33246;SDS011;19606;50.108;19.804;2022-12-11T12:46:50;37.63;;;16.77;;
33246;SDS011;19606;50.108;19.804;2022-12-11T12:49:35;38.13;;;15.77;;
33246;SDS011;19606;50.108;19.804;2022-12-11T12:52:02;31.33;;;15.32;;
33246;SDS011;19606;50.108;19.804;2022-12-11T12:54:30;38.97;;;16.52;;
33246;SDS011;19606;50.108;19.804;2022-12-11T12:56:57;48.63;;;18.90;;
33246;SDS011;19606;50.108;19.804;2022-12-11T12:59:26;18.67;;;8.27;;
33246;SDS011;19606;50.108;19.804;2022-12-11T13:01:56;26.48;;;12.25;;
33246;SDS011;19606;50.108;19.804;2022-12-11T13:07:20;32.30;;;14.48;;
33246;SDS011;19606;50.108;19.804;2022-12-11T13:10:00;31.27;;;14.15;;
33246;SDS011;19606;50.108;19.804;2022-12-11T13:12:46;37.22;;;16.40;;
33246;SDS011;19606;50.108;19.804;2022-12-11T13:18:00;36.90;;;16.15;;
33246;SDS011;19606;50.108;19.804;2022-12-11T13:20:31;33.22;;;14.68;;
33246;SDS011;19606;50.108;19.804;2022-12-11T13:23:09;29.13;;;14.40;;
33246;SDS011;19606;50.108;19.804;2022-12-11T13:25:55;24.52;;;11.35;;
33246;SDS011;19606;50.108;19.804;2022-12-11T13:28:25;17.95;;;9.20;;
33246;SDS011;19606;50.108;19.804;2022-12-11T13:33:28;34.22;;;14.90;;
33246;SDS011;19606;50.108;19.804;2022-12-11T13:38:59;32.40;;;14.30;;
33246;SDS011;19606;50.108;19.804;2022-12-11T13:41:27;30.00;;;13.93;;
33246;SDS011;19606;50.108;19.804;2022-12-11T13:43:55;33.33;;;15.35;;
33246;SDS011;19606;50.108;19.804;2022-12-11T13:46:24;37.88;;;18.73;;
33246;SDS011;19606;50.108;19.804;2022-12-11T13:48:54;40.67;;;17.23;;
33246;SDS011;19606;50.108;19.804;2022-12-11T13:51:25;29.80;;;12.90;;
33246;SDS011;19606;50.108;19.804;2022-12-11T13:56:30;36.95;;;16.20;;
33246;SDS011;19606;50.108;19.804;2022-12-11T13:58:56;36.53;;;16.40;;
33246;SDS011;19606;50.108;19.804;2022-12-11T14:01:26;36.10;;;14.77;;
33246;SDS011;19606;50.108;19.804;2022-12-11T14:04:03;35.83;;;16.00;;
33246;SDS011;19606;50.108;19.804;2022-12-11T14:06:33;35.05;;;15.27;;
33246;SDS011;19606;50.108;19.804;2022-12-11T14:09:01;28.30;;;13.20;;
33246;SDS011;19606;50.108;19.804;2022-12-11T14:11:39;37.15;;;16.33;;
33246;SDS011;19606;50.108;19.804;2022-12-11T14:17:05;42.13;;;16.77;;
33246;SDS011;19606;50.108;19.804;2022-12-11T14:19:35;40.67;;;19.70;;
33246;SDS011;19606;50.108;19.804;2022-12-11T14:22:02;45.13;;;19.50;;
33246;SDS011;19606;50.108;19.804;2022-12-11T14:24:29;44.80;;;19.33;;
33246;SDS011;19606;50.108;19.804;2022-12-11T14:26:55;43.10;;;18.98;;
33246;SDS011;19606;50.108;19.804;2022-12-11T14:29:23;55.00;;;21.63;;
33246;SDS011;19606;50.108;19.804;2022-12-11T14:32:01;46.83;;;19.83;;
33246;SDS011;19606;50.108;19.804;2022-12-11T14:34:38;41.97;;;16.83;;
33246;SDS011;19606;50.108;19.804;2022-12-11T14:37:09;49.95;;;19.25;;
33246;SDS011;19606;50.108;19.804;2022-12-11T14:39:39;43.75;;;19.83;;
33246;SDS011;19606;50.108;19.804;2022-12-11T14:42:18;40.40;;;17.35;;
33246;SDS011;19606;50.108;19.804;2022-12-11T14:44:48;47.88;;;20.67;;
33246;SDS011;19606;50.108;19.804;2022-12-11T14:47:22;37.53;;;16.67;;
33246;SDS011;19606;50.108;19.804;2022-12-11T14:49:56;49.25;;;18.83;;
33246;SDS011;19606;50.108;19.804;2022-12-11T14:52:39;38.58;;;16.55;;
33246;SDS011;19606;50.108;19.804;2022-12-11T14:55:14;39.42;;;18.88;;
33246;SDS011;19606;50.108;19.804;2022-12-11T14:57:53;49.40;;;19.42;;
33246;SDS011;19606;50.108;19.804;2022-12-11T15:00:27;45.80;;;18.65;;
33246;SDS011;19606;50.108;19.804;2022-12-11T15:02:57;23.75;;;10.35;;
33246;SDS011;19606;50.108;19.804;2022-12-11T15:05:23;44.45;;;16.40;;
33246;SDS011;19606;50.108;19.804;2022-12-11T15:11:08;34.40;;;14.63;;
33246;SDS011;19606;50.108;19.804;2022-12-11T15:13:57;40.25;;;17.00;;
33246;SDS011;19606;50.108;19.804;2022-12-11T15:18:55;40.70;;;18.02;;
33246;SDS011;19606;50.108;19.804;2022-12-11T15:21:27;53.33;;;19.20;;
33246;SDS011;19606;50.108;19.804;2022-12-11T15:23:56;42.85;;;19.80;;
33246;SDS011;19606;50.108;19.804;2022-12-11T15:26:36;45.58;;;18.55;;
33246;SDS011;19606;50.108;19.804;2022-12-11T15:29:29;48.38;;;19.55;;
33246;SDS011;19606;50.108;19.804;2022-12-11T15:34:33;54.55;;;22.95;;
33246;SDS011;19606;50.108;19.804;2022-12-11T15:37:00;47.75;;;20.80;;
33246;SDS011;19606;50.108;19.804;2022-12-11T15:39:26;54.38;;;22.33;;
33246;SDS011;19606;50.108;19.804;2022-12-11T15:41:54;50.75;;;21.10;;
33246;SDS011;19606;50.108;19.804;2022-12-11T15:44:20;53.00;;;20.83;;
33246;SDS011;19606;50.108;19.804;2022-12-11T15:46:47;61.35;;;24.13;;
33246;SDS011;19606;50.108;19.804;2022-12-11T15:49:13;61.85;;;24.70;;
33246;SDS011;19606;50.108;19.804;2022-12-11T15:51:39;36.17;;;15.35;;
33246;SDS011;19606;50.108;19.804;2022-12-11T15:54:05;58.80;;;25.23;;
33246;SDS011;19606;50.108;19.804;2022-12-11T15:56:31;56.35;;;24.85;;
33246;SDS011;19606;50.108;19.804;2022-12-11T15:58:59;58.47;;;21.30;;
33246;SDS011;19606;50.108;19.804;2022-12-11T16:01:28;57.05;;;22.63;;